createdAt,value
2023-05-10T00:00:37.390Z,14.32
2023-05-10T00:01:37.426Z,14.32
2023-05-10T00:02:37.459Z,14.32
2023-05-10T00:03:37.436Z,14.31
2023-05-10T00:04:37.331Z,14.29
2023-05-10T00:05:37.329Z,14.32
2023-05-10T00:06:37.305Z,14.28
2023-05-10T00:07:37.307Z,14.27
2023-05-10T00:08:37.326Z,14.27
2023-05-10T00:09:37.295Z,14.24
2023-05-10T00:10:37.276Z,14.25
2023-05-10T00:11:37.252Z,14.24
2023-05-10T00:12:37.279Z,14.24
2023-05-10T00:13:37.228Z,14.21
2023-05-10T00:14:37.239Z,14.21
2023-05-10T00:15:37.218Z,14.20
2023-05-10T00:16:37.240Z,14.21
2023-05-10T00:17:37.257Z,14.24
2023-05-10T00:18:37.208Z,14.25
2023-05-10T00:19:37.170Z,14.25
2023-05-10T00:20:37.167Z,14.25
2023-05-10T00:21:37.186Z,14.24
2023-05-10T00:22:37.159Z,14.24
2023-05-10T00:23:37.131Z,14.24
2023-05-10T00:24:37.113Z,14.21
2023-05-10T00:25:37.096Z,14.19
2023-05-10T00:26:37.137Z,14.20
2023-05-10T00:27:37.080Z,14.19
2023-05-10T00:28:37.091Z,14.20
2023-05-10T00:29:37.074Z,14.20
2023-05-10T00:30:37.054Z,14.21
2023-05-10T00:31:37.120Z,14.21
2023-05-10T00:32:37.159Z,14.21
2023-05-10T00:33:37.012Z,14.24
2023-05-10T00:34:37.021Z,14.24
2023-05-10T00:35:37.044Z,14.20
2023-05-10T00:36:37.027Z,14.20
2023-05-10T00:37:37.013Z,14.21
2023-05-10T00:38:36.985Z,14.21
2023-05-10T00:39:36.951Z,14.21
2023-05-10T00:40:36.991Z,14.19
2023-05-10T00:41:36.942Z,14.17
2023-05-10T00:42:36.931Z,14.16
2023-05-10T00:43:36.961Z,14.14
2023-05-10T00:44:36.926Z,14.14
2023-05-10T00:45:36.922Z,14.13
2023-05-10T00:46:37.034Z,14.13
2023-05-10T00:47:36.998Z,14.12
2023-05-10T00:48:36.906Z,14.12
2023-05-10T00:49:36.888Z,14.10
2023-05-10T00:50:36.879Z,14.12
2023-05-10T00:51:36.857Z,14.10
2023-05-10T00:52:36.840Z,14.10
2023-05-10T00:53:36.846Z,14.07
2023-05-10T00:54:36.838Z,14.02
2023-05-10T00:55:36.824Z,14.02
2023-05-10T00:56:36.808Z,14.02
2023-05-10T00:57:36.802Z,14.01
2023-05-10T00:58:36.765Z,13.95
2023-05-10T00:59:36.779Z,13.95
2023-05-10T01:00:36.742Z,13.94
2023-05-10T01:01:36.766Z,13.94
2023-05-10T01:02:36.814Z,13.94
2023-05-10T01:03:36.760Z,13.92
2023-05-10T01:04:36.780Z,13.91
2023-05-10T01:05:36.701Z,13.91
2023-05-10T01:06:36.680Z,13.91
2023-05-10T01:07:36.668Z,13.88
2023-05-10T01:08:36.708Z,13.88
2023-05-10T01:09:36.650Z,13.84
2023-05-10T01:10:36.653Z,13.83
2023-05-10T01:11:36.639Z,13.81
2023-05-10T01:12:36.681Z,13.80
2023-05-10T01:13:36.624Z,13.79
2023-05-10T01:14:36.619Z,13.79
2023-05-10T01:15:36.631Z,13.79
2023-05-10T01:16:36.591Z,13.80
2023-05-10T01:17:36.660Z,13.79
2023-05-10T01:18:36.606Z,13.77
2023-05-10T01:19:36.543Z,13.77
2023-05-10T01:20:36.560Z,13.76
2023-05-10T01:21:36.526Z,13.74
2023-05-10T01:22:36.544Z,13.76
2023-05-10T01:23:36.510Z,13.73
2023-05-10T01:24:36.495Z,13.71
2023-05-10T01:25:36.485Z,13.73
2023-05-10T01:26:36.484Z,13.71
2023-05-10T01:27:36.490Z,13.70
2023-05-10T01:28:36.458Z,13.70
2023-05-10T01:29:36.443Z,13.70
2023-05-10T01:30:36.432Z,13.69
2023-05-10T01:31:36.497Z,13.69
2023-05-10T01:32:36.478Z,13.67
2023-05-10T01:33:36.394Z,13.69
2023-05-10T01:34:36.388Z,13.67
2023-05-10T01:35:36.387Z,13.65
2023-05-10T01:36:36.394Z,13.63
2023-05-10T01:37:36.361Z,13.63
2023-05-10T01:38:36.459Z,13.63
2023-05-10T01:39:36.341Z,13.63
2023-05-10T01:40:36.327Z,13.62
2023-05-10T01:41:36.342Z,13.63
2023-05-10T01:42:36.300Z,13.65
2023-05-10T01:43:36.288Z,13.65
2023-05-10T01:44:36.285Z,13.65
2023-05-10T01:45:36.296Z,13.67
2023-05-10T01:46:36.390Z,13.67
2023-05-10T01:47:36.279Z,13.71
2023-05-10T01:48:36.238Z,13.70
2023-05-10T01:49:36.242Z,13.71
2023-05-10T01:50:36.283Z,13.71
2023-05-10T01:51:36.222Z,13.71
2023-05-10T01:52:36.191Z,13.73
2023-05-10T01:53:36.187Z,13.73
2023-05-10T01:54:36.168Z,13.73
2023-05-10T01:55:36.202Z,13.74
2023-05-10T01:56:36.162Z,13.74
2023-05-10T01:57:36.152Z,13.76
2023-05-10T01:58:36.144Z,13.74
2023-05-10T01:59:36.167Z,13.76
2023-05-10T02:00:36.213Z,13.79
2023-05-10T02:01:36.104Z,13.80
2023-05-10T02:02:36.109Z,13.80
2023-05-10T02:03:36.109Z,13.81
2023-05-10T02:04:36.109Z,13.79
2023-05-10T02:05:36.062Z,13.80
2023-05-10T02:06:36.042Z,13.80
2023-05-10T02:07:36.044Z,13.80
2023-05-10T02:08:36.025Z,13.80
2023-05-10T02:09:36.062Z,13.83
2023-05-10T02:10:36.009Z,13.81
2023-05-10T02:11:36.001Z,13.80
2023-05-10T02:12:35.996Z,13.81
2023-05-10T02:13:36.052Z,13.80
2023-05-10T02:14:35.983Z,13.87
2023-05-10T02:15:35.975Z,13.81
2023-05-10T02:16:36.004Z,13.81
2023-05-10T02:17:35.952Z,13.83
2023-05-10T02:18:35.966Z,13.84
2023-05-10T02:19:35.924Z,13.84
2023-05-10T02:20:35.911Z,13.87
2023-05-10T02:21:35.898Z,13.88
2023-05-10T02:22:35.879Z,13.87
2023-05-10T02:23:35.898Z,13.89
2023-05-10T02:24:35.874Z,13.89
2023-05-10T02:25:35.865Z,13.89
2023-05-10T02:26:35.847Z,13.89
2023-05-10T02:27:35.869Z,13.89
2023-05-10T02:28:35.845Z,13.89
2023-05-10T02:29:35.824Z,13.88
2023-05-10T02:30:35.818Z,13.87
2023-05-10T02:31:35.849Z,13.89
2023-05-10T02:32:35.834Z,13.91
2023-05-10T02:33:35.772Z,13.89
2023-05-10T02:34:35.746Z,13.91
2023-05-10T02:35:35.746Z,13.89
2023-05-10T02:36:35.732Z,13.91
2023-05-10T02:37:35.751Z,13.89
2023-05-10T02:38:35.717Z,13.88
2023-05-10T02:39:35.703Z,13.88
2023-05-10T02:40:35.707Z,13.87
2023-05-10T02:41:35.710Z,13.87
2023-05-10T02:42:35.723Z,13.87
2023-05-10T02:43:35.661Z,13.84
2023-05-10T02:44:35.649Z,13.83
2023-05-10T02:45:35.668Z,13.81
2023-05-10T02:46:35.862Z,13.77
2023-05-10T02:47:35.664Z,13.77
2023-05-10T02:48:35.616Z,13.70
2023-05-10T02:49:35.601Z,13.63
2023-05-10T02:50:35.642Z,13.59
2023-05-10T02:51:35.623Z,13.55
2023-05-10T02:52:35.570Z,13.51
2023-05-10T02:53:35.592Z,13.46
2023-05-10T02:54:35.548Z,13.40
2023-05-10T02:55:35.545Z,13.29
2023-05-10T02:56:35.571Z,13.21
2023-05-10T02:57:35.523Z,13.17
2023-05-10T02:58:35.518Z,13.18
2023-05-10T02:59:35.536Z,13.15
2023-05-10T03:00:35.517Z,13.12
2023-05-10T03:01:35.532Z,13.03
2023-05-10T03:02:35.500Z,13.00
2023-05-10T03:03:35.489Z,12.99
2023-05-10T03:04:35.485Z,12.95
2023-05-10T03:05:35.491Z,12.92
2023-05-10T03:06:35.448Z,12.89
2023-05-10T03:07:35.423Z,12.87
2023-05-10T03:08:35.409Z,12.85
2023-05-10T03:09:35.427Z,12.87
2023-05-10T03:10:35.352Z,12.84
2023-05-10T03:11:35.334Z,12.84
2023-05-10T03:12:35.320Z,12.82
2023-05-10T03:13:35.362Z,12.77
2023-05-10T03:14:35.328Z,12.77
2023-05-10T03:15:35.286Z,12.74
2023-05-10T03:16:35.295Z,12.74
2023-05-10T03:17:35.307Z,12.67
2023-05-10T03:18:35.335Z,12.67
2023-05-10T03:19:35.263Z,12.63
2023-05-10T03:20:35.228Z,12.63
2023-05-10T03:21:35.246Z,12.63
2023-05-10T03:22:35.214Z,12.62
2023-05-10T03:23:35.233Z,12.62
2023-05-10T03:24:35.184Z,12.63
2023-05-10T03:25:35.193Z,12.62
2023-05-10T03:26:35.197Z,12.60
2023-05-10T03:27:35.193Z,12.59
2023-05-10T03:28:35.187Z,12.59
2023-05-10T03:29:35.174Z,12.59
2023-05-10T03:30:35.130Z,12.59
2023-05-10T03:31:35.146Z,12.60
2023-05-10T03:32:35.223Z,12.62
2023-05-10T03:33:35.120Z,12.59
2023-05-10T03:34:35.081Z,12.60
2023-05-10T03:35:35.152Z,12.59
2023-05-10T03:36:35.062Z,12.57
2023-05-10T03:37:35.104Z,12.54
2023-05-10T03:38:35.146Z,12.57
2023-05-10T03:39:35.054Z,12.59
2023-05-10T03:40:35.022Z,12.57
2023-05-10T03:41:35.032Z,12.57
2023-05-10T03:42:35.095Z,12.60
2023-05-10T03:43:34.997Z,12.59
2023-05-10T03:44:34.995Z,12.57
2023-05-10T03:45:35.003Z,12.57
2023-05-10T03:46:35.023Z,12.56
2023-05-10T03:47:34.999Z,12.57
2023-05-10T03:48:35.001Z,12.60
2023-05-10T03:49:34.948Z,12.62
2023-05-10T03:50:34.936Z,12.62
2023-05-10T03:51:34.904Z,12.64
2023-05-10T03:52:34.956Z,12.63
2023-05-10T03:53:34.910Z,12.66
2023-05-10T03:54:34.880Z,12.66
2023-05-10T03:55:34.894Z,12.67
2023-05-10T03:56:34.901Z,12.67
2023-05-10T03:57:34.874Z,12.69
2023-05-10T03:58:34.836Z,12.69
2023-05-10T03:59:34.848Z,12.67
2023-05-10T04:00:34.849Z,12.67
2023-05-10T04:01:34.893Z,12.66
2023-05-10T04:02:34.879Z,12.67
2023-05-10T04:03:34.849Z,12.66
2023-05-10T04:04:34.782Z,12.67
2023-05-10T04:05:34.801Z,12.67
2023-05-10T04:06:34.779Z,12.67
2023-05-10T04:07:34.781Z,12.69
2023-05-10T04:08:34.744Z,12.71
2023-05-10T04:09:34.746Z,12.70
2023-05-10T04:10:34.774Z,12.70
2023-05-10T04:11:34.731Z,12.70
2023-05-10T04:12:34.738Z,12.70
2023-05-10T04:13:34.733Z,12.71
2023-05-10T04:14:34.774Z,12.71
2023-05-10T04:15:34.781Z,12.71
2023-05-10T04:16:49.703Z,12.71
2023-05-10T04:17:37.395Z,12.71
2023-05-10T04:19:49.122Z,12.70
2023-05-10T04:20:48.848Z,12.69
2023-05-10T04:22:38.953Z,12.71
2023-05-10T04:23:39.854Z,12.71
2023-05-10T04:24:39.888Z,12.74
2023-05-10T04:25:47.078Z,12.71
2023-05-10T04:26:39.872Z,12.71
2023-05-10T04:27:39.803Z,12.69
2023-05-10T04:28:39.810Z,12.69
2023-05-10T04:29:39.812Z,12.70
2023-05-10T04:30:39.776Z,12.70
2023-05-10T04:31:39.768Z,12.74
2023-05-10T04:32:39.775Z,12.67
2023-05-10T04:33:47.983Z,12.70
2023-05-10T04:34:39.833Z,12.71
2023-05-10T04:35:39.751Z,12.70
2023-05-10T04:36:39.735Z,12.74
2023-05-10T04:37:39.690Z,12.74
2023-05-10T04:38:39.719Z,12.74
2023-05-10T04:39:42.018Z,12.75
2023-05-10T04:40:39.741Z,12.75
2023-05-10T04:41:39.688Z,12.69
2023-05-10T04:42:40.525Z,12.69
2023-05-10T04:43:39.825Z,12.70
2023-05-10T04:44:39.648Z,12.70
2023-05-10T04:45:39.675Z,12.70
2023-05-10T04:46:40.774Z,12.71
2023-05-10T04:47:39.652Z,12.74
2023-05-10T04:48:40.183Z,12.74
2023-05-10T04:57:25.731Z,12.66
2023-05-10T04:58:26.414Z,12.66
2023-05-10T04:59:27.557Z,12.63
2023-05-10T05:00:26.545Z,12.60
2023-05-10T05:05:17.611Z,12.59
2023-05-10T05:08:40.237Z,12.57
2023-05-10T05:09:41.288Z,12.54
2023-05-10T05:10:41.938Z,12.51
2023-05-10T05:15:11.840Z,12.49
2023-05-10T05:16:12.903Z,12.54
2023-05-10T05:22:00.181Z,12.59
2023-05-10T05:23:01.070Z,12.59
2023-05-10T05:24:00.821Z,12.56
2023-05-10T05:28:53.328Z,12.59
2023-05-10T05:29:49.693Z,12.56
2023-05-10T05:30:50.199Z,12.54
2023-05-10T05:35:41.215Z,12.62
2023-05-10T05:36:42.176Z,12.62
2023-05-10T05:37:42.203Z,12.60
2023-05-10T05:40:45.044Z,12.57
2023-05-10T05:41:43.156Z,12.56
2023-05-10T05:42:43.072Z,12.54
2023-05-10T05:43:43.662Z,12.56
2023-05-10T05:44:42.919Z,12.52
2023-05-10T05:45:44.650Z,12.56
2023-05-10T05:53:31.915Z,12.51
2023-05-10T05:54:32.885Z,12.48
2023-05-10T05:55:32.773Z,12.46
2023-05-10T05:56:32.720Z,12.49
2023-05-10T05:57:32.678Z,12.57
2023-05-10T05:58:32.666Z,12.59
2023-05-10T06:46:36.423Z,12.56
2023-05-10T06:47:38.950Z,12.44
2023-05-10T06:48:37.134Z,12.42
2023-05-10T06:49:37.107Z,12.41
2023-05-10T07:38:00.207Z,14.69
2023-05-10T08:38:18.706Z,15.41
2023-05-10T09:05:08.422Z,17.46
2023-05-10T09:55:15.203Z,14.72
2023-05-10T09:56:15.799Z,14.84
2023-05-10T09:59:25.994Z,15.26
2023-05-10T10:00:26.864Z,15.35
2023-05-10T10:01:26.655Z,15.36
2023-05-10T10:04:01.422Z,15.67
2023-05-10T10:26:22.197Z,17.30
2023-05-10T10:30:13.812Z,16.96
2023-05-10T10:31:14.659Z,17.03
2023-05-10T10:36:54.283Z,20.62
2023-05-10T10:37:52.826Z,20.76
2023-05-10T10:38:52.813Z,20.81
2023-05-10T10:39:52.789Z,21.14
2023-05-10T10:40:52.781Z,20.81
2023-05-10T10:41:52.774Z,21.17
2023-05-10T10:42:52.930Z,21.57
2023-05-10T10:43:52.751Z,21.76
2023-05-10T10:44:52.726Z,22.32
2023-05-10T10:45:52.717Z,23.04
2023-05-10T10:46:52.844Z,23.01
2023-05-10T10:47:52.717Z,22.54
2023-05-10T10:48:52.693Z,22.07
2023-05-10T10:49:52.758Z,21.60
2023-05-10T10:50:52.675Z,20.84
2023-05-10T10:51:52.703Z,20.61
2023-05-10T10:52:52.709Z,22.06
2023-05-10T10:53:52.644Z,22.93
2023-05-10T10:54:52.677Z,22.92
2023-05-10T10:55:52.725Z,23.24
2023-05-10T10:56:52.636Z,23.80
2023-05-10T10:57:52.653Z,24.31
2023-05-10T10:58:52.658Z,24.49
2023-05-10T10:59:52.585Z,24.85
2023-05-10T11:00:52.680Z,24.75
2023-05-10T11:01:52.574Z,25.09
2023-05-10T11:02:52.735Z,25.50
2023-05-10T11:03:52.598Z,25.69
2023-05-10T11:04:52.522Z,25.34
2023-05-10T11:05:52.804Z,25.42
2023-05-10T11:06:52.521Z,25.46
2023-05-10T11:07:52.519Z,25.90
2023-05-10T11:08:52.489Z,25.46
2023-05-10T11:09:52.476Z,25.56
2023-05-10T11:10:52.469Z,25.31
2023-05-10T11:11:52.484Z,23.83
2023-05-10T11:12:52.484Z,23.45
2023-05-10T11:13:52.439Z,22.37
2023-05-10T11:14:52.457Z,23.26
2023-05-10T11:15:52.670Z,23.61
2023-05-10T11:16:52.488Z,23.83
2023-05-10T11:17:52.437Z,24.56
2023-05-10T11:18:52.406Z,25.10
2023-05-10T11:19:52.399Z,25.65
2023-05-10T11:20:52.390Z,26.20
2023-05-10T11:21:52.365Z,26.46
2023-05-10T11:22:52.363Z,27.01
2023-05-10T11:23:52.357Z,26.99
2023-05-10T11:24:52.413Z,26.32
2023-05-10T11:25:52.310Z,26.67
2023-05-10T11:26:52.370Z,26.05
2023-05-10T11:27:52.336Z,25.19
2023-05-10T11:28:52.339Z,24.44
2023-05-10T11:29:52.261Z,23.77
2023-05-10T11:30:52.306Z,23.19
2023-05-10T11:31:52.303Z,22.38
2023-05-10T11:32:52.280Z,21.39
2023-05-10T11:33:52.292Z,20.86
2023-05-10T11:34:52.241Z,20.49
2023-05-10T11:35:52.262Z,20.09
2023-05-10T11:36:52.210Z,19.79
2023-05-10T11:37:52.202Z,19.28
2023-05-10T11:38:52.225Z,19.02
2023-05-10T11:39:52.223Z,18.83
2023-05-10T11:40:52.165Z,18.74
2023-05-10T11:41:52.153Z,18.50
2023-05-10T11:42:52.177Z,18.19
2023-05-10T11:43:52.142Z,18.04
2023-05-10T11:44:52.143Z,18.00
2023-05-10T11:45:52.157Z,18.02
2023-05-10T11:46:52.159Z,18.02
2023-05-10T11:47:52.240Z,18.31
2023-05-10T11:48:52.107Z,18.65
2023-05-10T11:49:52.077Z,20.05
2023-05-10T11:50:52.067Z,21.30
2023-05-10T11:51:52.076Z,22.47
2023-05-10T11:52:52.072Z,23.23
2023-05-10T11:53:52.053Z,23.83
2023-05-10T11:54:52.039Z,24.08
2023-05-10T11:55:52.013Z,23.12
2023-05-10T11:56:52.037Z,22.43
2023-05-10T11:57:52.002Z,21.83
2023-05-10T11:58:52.005Z,21.20
2023-05-10T11:59:51.991Z,20.61
2023-05-10T12:00:51.969Z,20.23
2023-05-10T12:01:51.998Z,19.90
2023-05-10T12:02:52.023Z,19.72
2023-05-10T12:03:52.106Z,19.28
2023-05-10T12:04:52.054Z,19.13
2023-05-10T12:05:51.919Z,18.98
2023-05-10T12:06:51.901Z,18.90
2023-05-10T12:07:51.891Z,18.77
2023-05-10T12:08:51.896Z,18.68
2023-05-10T12:09:51.899Z,18.50
2023-05-10T12:10:51.879Z,18.39
2023-05-10T12:11:51.853Z,18.34
2023-05-10T12:12:51.834Z,18.03
2023-05-10T12:13:51.836Z,17.71
2023-05-10T12:14:51.866Z,17.46
2023-05-10T12:15:51.807Z,17.33
2023-05-10T12:16:51.797Z,17.33
2023-05-10T12:17:51.862Z,17.25
2023-05-10T12:18:51.877Z,17.28
2023-05-10T12:19:51.788Z,17.15
2023-05-10T12:20:51.794Z,17.13
2023-05-10T12:21:51.741Z,17.07
2023-05-10T12:22:51.734Z,16.89
2023-05-10T12:23:51.732Z,16.98
2023-05-10T12:24:51.787Z,17.07
2023-05-10T12:25:51.697Z,17.25
2023-05-10T12:26:51.713Z,17.25
2023-05-10T12:27:51.712Z,17.14
2023-05-10T12:28:51.742Z,17.26
2023-05-10T12:29:51.683Z,17.33
2023-05-10T12:30:51.653Z,17.38
2023-05-10T12:31:51.746Z,17.29
2023-05-10T12:32:51.726Z,17.13
2023-05-10T12:33:51.642Z,16.99
2023-05-10T12:34:51.629Z,16.95
2023-05-10T12:35:51.607Z,16.89
2023-05-10T12:36:51.586Z,16.78
2023-05-10T12:37:51.582Z,16.55
2023-05-10T12:38:51.613Z,16.37
2023-05-10T12:39:51.553Z,16.31
2023-05-10T12:40:51.587Z,16.14
2023-05-10T12:41:51.559Z,16.09
2023-05-10T12:42:51.608Z,16.12
2023-05-10T12:43:51.551Z,16.11
2023-05-10T12:44:51.567Z,16.09
2023-05-10T12:45:51.545Z,16.14
2023-05-10T12:46:51.483Z,16.09
2023-05-10T12:47:51.540Z,15.99
2023-05-10T12:48:57.557Z,15.89
2023-05-10T12:49:51.454Z,15.82
2023-05-10T12:50:51.445Z,15.52
2023-05-10T12:51:51.436Z,15.49
2023-05-10T12:52:51.462Z,15.45
2023-05-10T12:53:51.426Z,15.46
2023-05-10T12:54:51.402Z,15.43
2023-05-10T12:55:51.418Z,15.42
2023-05-10T12:56:51.381Z,15.35
2023-05-10T12:57:51.389Z,15.33
2023-05-10T12:58:51.427Z,15.35
2023-05-10T12:59:51.346Z,15.31
2023-05-10T13:00:51.361Z,15.33
2023-05-10T13:01:51.372Z,15.28
2023-05-10T13:02:51.439Z,15.28
2023-05-10T13:03:51.320Z,15.31
2023-05-10T13:04:51.383Z,15.43
2023-05-10T13:05:51.279Z,15.51
2023-05-10T13:06:51.330Z,15.63
2023-05-10T13:07:51.260Z,15.74
2023-05-10T13:08:51.264Z,15.85
2023-05-10T13:09:51.235Z,15.93
2023-05-10T13:10:51.236Z,16.11
2023-05-10T13:11:51.237Z,16.35
2023-05-10T13:12:51.229Z,16.60
2023-05-10T13:13:51.217Z,16.92
2023-05-10T13:14:51.192Z,17.17
2023-05-10T13:15:51.238Z,17.29
2023-05-10T13:16:51.242Z,17.50
2023-05-10T13:17:51.182Z,17.51
2023-05-10T13:18:51.216Z,17.64
2023-05-10T13:19:51.152Z,17.94
2023-05-10T13:20:51.707Z,18.15
2023-05-10T13:21:51.202Z,18.36
2023-05-10T13:22:52.262Z,18.47
2023-05-10T13:23:52.440Z,18.54
2023-05-10T13:24:51.095Z,18.61
2023-05-10T13:25:51.704Z,18.74
2023-05-10T13:26:51.885Z,18.83
2023-05-10T13:27:51.061Z,18.97
2023-05-10T13:28:51.047Z,19.01
2023-05-10T13:29:51.059Z,18.83
2023-05-10T13:30:51.050Z,18.80
2023-05-10T13:31:51.147Z,18.91
2023-05-10T13:32:51.034Z,19.02
2023-05-10T13:33:51.889Z,19.05
2023-05-10T13:34:51.003Z,19.13
2023-05-10T13:35:50.973Z,19.15
2023-05-10T13:36:50.977Z,19.23
2023-05-10T13:37:50.952Z,19.24
2023-05-10T13:38:50.963Z,19.35
2023-05-10T13:39:51.027Z,19.35
2023-05-10T13:40:51.083Z,19.48
2023-05-10T13:41:50.920Z,19.58
2023-05-10T13:42:50.899Z,19.72
2023-05-10T13:43:50.943Z,19.88
2023-05-10T13:44:50.917Z,19.90
2023-05-10T13:45:50.897Z,19.69
2023-05-10T13:46:51.010Z,19.51
2023-05-10T13:47:50.883Z,19.58
2023-05-10T13:48:51.013Z,19.65
2023-05-10T13:49:50.841Z,19.70
2023-05-10T13:50:50.817Z,19.88
2023-05-10T13:51:50.854Z,20.02
2023-05-10T13:52:50.818Z,20.08
2023-05-10T13:53:50.850Z,20.15
2023-05-10T13:54:50.822Z,20.16
2023-05-10T13:55:50.784Z,20.02
2023-05-10T13:56:50.760Z,19.87
2023-05-10T13:57:51.479Z,19.76
2023-05-10T13:58:51.680Z,19.79
2023-05-10T13:59:50.725Z,19.86
2023-05-10T14:00:51.065Z,19.76
2023-05-10T14:01:50.766Z,19.68
2023-05-10T14:02:50.771Z,19.73
2023-05-10T14:03:50.744Z,19.61
2023-05-10T14:04:50.672Z,19.47
2023-05-10T14:05:52.020Z,19.51
2023-05-10T14:06:50.688Z,19.72
2023-05-10T14:07:50.689Z,19.83
2023-05-10T14:08:50.650Z,19.93
2023-05-10T14:09:50.707Z,20.20
2023-05-10T14:10:50.745Z,20.39
2023-05-10T14:11:50.778Z,20.31
2023-05-10T14:12:50.635Z,20.41
2023-05-10T14:13:50.592Z,20.51
2023-05-10T14:14:50.586Z,20.39
2023-05-10T14:15:50.587Z,20.35
2023-05-10T14:16:50.908Z,20.31
2023-05-10T14:17:50.627Z,20.43
2023-05-10T14:18:50.644Z,20.53
2023-05-10T14:19:50.519Z,20.59
2023-05-10T14:20:50.518Z,20.71
2023-05-10T14:21:50.543Z,20.59
2023-05-10T14:22:50.488Z,20.27
2023-05-10T14:23:50.535Z,20.15
2023-05-10T14:24:50.499Z,19.75
2023-05-10T14:25:50.566Z,19.54
2023-05-10T14:26:50.467Z,19.57
2023-05-10T14:27:50.445Z,19.51
2023-05-10T14:28:50.502Z,19.05
2023-05-10T14:29:51.302Z,18.90
2023-05-10T14:30:50.432Z,18.79
2023-05-10T14:31:50.491Z,18.54
2023-05-10T14:32:50.443Z,18.43
2023-05-10T14:33:50.429Z,18.42
2023-05-10T14:34:50.373Z,18.36
2023-05-10T14:35:50.424Z,18.24
2023-05-10T14:36:50.357Z,18.09
2023-05-10T14:37:50.385Z,18.03
2023-05-10T14:38:50.392Z,17.91
2023-05-10T14:39:50.339Z,17.82
2023-05-10T14:40:50.375Z,17.64
2023-05-10T14:41:50.304Z,17.62
2023-05-10T14:42:50.280Z,17.54
2023-05-10T14:43:50.289Z,17.59
2023-05-10T14:44:50.307Z,17.57
2023-05-10T14:45:50.320Z,17.69
2023-05-10T14:46:50.233Z,17.81
2023-05-10T14:47:50.233Z,17.89
2023-05-10T14:48:50.236Z,17.91
2023-05-10T14:49:50.255Z,17.88
2023-05-10T14:50:50.225Z,17.82
2023-05-10T14:51:50.206Z,17.81
2023-05-10T14:52:50.177Z,17.59
2023-05-10T14:53:50.197Z,17.57
2023-05-10T14:54:50.188Z,17.59
2023-05-10T14:55:50.150Z,17.54
2023-05-10T14:56:50.122Z,17.54
2023-05-10T14:57:50.151Z,17.55
2023-05-10T14:58:50.287Z,17.29
2023-05-10T14:59:50.114Z,17.20
2023-05-10T15:00:50.098Z,17.17
2023-05-10T15:01:50.158Z,17.20
2023-05-10T15:02:50.264Z,17.10
2023-05-10T15:03:50.141Z,17.11
2023-05-10T15:04:50.081Z,17.10
2023-05-10T15:05:50.135Z,17.07
2023-05-10T15:06:50.036Z,16.95
2023-05-10T15:07:50.059Z,16.93
2023-05-10T15:08:50.029Z,16.85
2023-05-10T15:09:49.989Z,16.86
2023-05-10T15:10:50.044Z,16.89
2023-05-10T15:11:50.018Z,16.81
2023-05-10T15:12:50.074Z,16.90
2023-05-10T15:13:50.739Z,16.83
2023-05-10T15:14:49.968Z,16.92
2023-05-10T15:15:49.962Z,16.86
2023-05-10T15:16:50.047Z,16.89
2023-05-10T15:17:50.007Z,16.75
2023-05-10T15:18:49.970Z,16.74
2023-05-10T15:19:49.966Z,16.77
2023-05-10T15:20:49.924Z,16.86
2023-05-10T15:21:49.996Z,16.89
2023-05-10T15:22:49.913Z,16.90
2023-05-10T15:23:49.879Z,16.92
2023-05-10T15:24:49.951Z,16.95
2023-05-10T15:25:50.657Z,16.95
2023-05-10T15:26:50.676Z,16.89
2023-05-10T15:27:50.084Z,16.86
2023-05-10T15:28:50.708Z,16.86
2023-05-10T15:29:50.651Z,16.85
2023-05-10T15:30:49.780Z,16.75
2023-05-10T15:31:49.867Z,16.70
2023-05-10T15:32:49.819Z,16.68
2023-05-10T15:33:49.777Z,16.77
2023-05-10T15:34:49.746Z,16.78
2023-05-10T15:35:49.770Z,16.80
2023-05-10T15:36:49.732Z,16.77
2023-05-10T15:37:49.739Z,16.78
2023-05-10T15:38:49.738Z,16.85
2023-05-10T15:39:49.754Z,16.83
2023-05-10T15:40:49.757Z,16.70
2023-05-10T15:41:49.707Z,16.62
2023-05-10T15:42:49.696Z,16.65
2023-05-10T15:43:49.683Z,16.67
2023-05-10T15:44:49.686Z,16.74
2023-05-10T15:45:49.757Z,16.70
2023-05-10T15:46:49.688Z,16.71
2023-05-10T15:47:49.651Z,16.75
2023-05-10T15:48:49.647Z,16.77
2023-05-10T15:49:49.658Z,16.68
2023-05-10T15:50:49.686Z,16.44
2023-05-10T15:51:49.588Z,16.34
2023-05-10T15:52:49.575Z,16.34
2023-05-10T15:54:05.382Z,16.31
2023-05-10T15:54:49.582Z,16.18
2023-05-10T15:55:49.567Z,16.22
2023-05-10T15:56:49.528Z,16.25
2023-05-10T15:57:49.538Z,16.26
2023-05-10T15:58:49.537Z,16.11
2023-05-10T15:59:49.529Z,16.00
2023-05-10T16:00:49.556Z,15.99
2023-05-10T16:01:49.526Z,15.82
2023-05-10T16:02:49.747Z,15.70
2023-05-10T16:03:49.491Z,15.67
2023-05-10T16:04:49.437Z,15.78
2023-05-10T16:05:49.445Z,15.84
2023-05-10T16:06:49.428Z,15.89
2023-05-10T16:07:49.428Z,15.89
2023-05-10T16:08:49.441Z,15.96
2023-05-10T16:09:49.440Z,15.94
2023-05-10T16:10:49.379Z,15.99
2023-05-10T16:11:49.366Z,16.00
2023-05-10T16:12:49.429Z,16.07
2023-05-10T16:13:49.368Z,16.09
2023-05-10T16:14:49.350Z,16.12
2023-05-10T16:15:49.347Z,16.14
2023-05-10T16:16:49.419Z,16.15
2023-05-10T16:17:49.534Z,16.15
2023-05-10T16:18:49.387Z,16.01
2023-05-10T16:19:49.287Z,16.04
2023-05-10T16:20:49.295Z,16.06
2023-05-10T16:21:49.273Z,16.03
2023-05-10T16:22:49.352Z,16.06
2023-05-10T16:23:49.259Z,16.12
2023-05-10T16:24:49.286Z,16.04
2023-05-10T16:25:49.247Z,15.96
2023-05-10T16:26:49.249Z,15.76
2023-05-10T16:27:49.248Z,15.68
2023-05-10T16:28:49.207Z,15.66
2023-05-10T16:29:49.184Z,15.60
2023-05-10T16:30:49.242Z,15.51
2023-05-10T16:31:49.232Z,15.43
2023-05-10T16:32:49.170Z,15.39
2023-05-10T16:33:49.197Z,15.39
2023-05-10T16:34:49.125Z,15.41
2023-05-10T16:35:49.144Z,15.36
2023-05-10T16:36:49.110Z,15.31
2023-05-10T16:37:49.123Z,15.27
2023-05-10T16:38:49.152Z,15.20
2023-05-10T16:39:49.299Z,15.19
2023-05-10T16:40:49.101Z,15.20
2023-05-10T16:41:49.093Z,15.20
2023-05-10T16:42:49.042Z,15.23
2023-05-10T16:43:49.066Z,15.17
2023-05-10T16:44:49.073Z,15.06
2023-05-10T16:45:49.069Z,15.02
2023-05-10T16:46:49.089Z,14.99
2023-05-10T16:47:49.054Z,14.99
2023-05-10T16:48:48.994Z,14.95
2023-05-10T16:49:48.988Z,14.93
2023-05-10T16:50:48.996Z,14.88
2023-05-10T16:51:48.980Z,14.90
2023-05-10T16:52:48.972Z,14.90
2023-05-10T16:53:48.958Z,14.91
2023-05-10T16:54:48.955Z,14.90
2023-05-10T16:55:48.957Z,14.86
2023-05-10T16:56:48.940Z,14.86
2023-05-10T16:57:48.916Z,14.87
2023-05-10T16:58:48.901Z,14.83
2023-05-10T16:59:50.566Z,14.86
2023-05-10T17:00:51.328Z,14.75
2023-05-10T17:01:50.849Z,14.74
2023-05-10T17:02:48.931Z,14.74
2023-05-10T17:03:48.977Z,14.75
2023-05-10T17:04:48.841Z,14.64
2023-05-10T17:05:48.838Z,14.60
2023-05-10T17:06:48.802Z,14.61
2023-05-10T17:07:48.814Z,14.56
2023-05-10T17:08:48.812Z,14.57
2023-05-10T17:09:48.779Z,14.62
2023-05-10T17:10:48.776Z,14.65
2023-05-10T17:11:48.786Z,14.64
2023-05-10T17:12:48.733Z,14.53
2023-05-10T17:13:48.763Z,14.49
2023-05-10T17:14:48.728Z,14.46
2023-05-10T17:15:48.798Z,14.46
2023-05-10T17:16:48.748Z,14.44
2023-05-10T17:17:48.743Z,14.43
2023-05-10T17:18:48.712Z,14.39
2023-05-10T17:19:48.678Z,14.43
2023-05-10T17:20:48.689Z,14.39
2023-05-10T17:21:48.711Z,14.27
2023-05-10T17:22:48.653Z,14.24
2023-05-10T17:23:48.692Z,14.21
2023-05-10T17:24:48.657Z,14.21
2023-05-10T17:25:48.600Z,14.10
2023-05-10T17:26:48.607Z,13.99
2023-05-10T17:27:48.612Z,13.96
2023-05-10T17:28:48.612Z,13.94
2023-05-10T17:29:48.577Z,13.94
2023-05-10T17:30:48.548Z,13.91
2023-05-10T17:31:48.588Z,13.94
2023-05-10T17:32:48.650Z,13.91
2023-05-10T17:33:48.559Z,13.91
2023-05-10T17:34:48.497Z,13.87
2023-05-10T17:35:48.532Z,13.88
2023-05-10T17:36:48.530Z,13.84
2023-05-10T17:37:48.523Z,13.83
2023-05-10T17:38:48.551Z,13.81
2023-05-10T17:39:48.454Z,13.83
2023-05-10T17:40:48.459Z,13.83
2023-05-10T17:41:48.502Z,13.74
2023-05-10T17:42:48.444Z,13.76
2023-05-10T17:43:48.456Z,13.73
2023-05-10T17:44:48.409Z,13.74
2023-05-10T17:45:48.472Z,13.73
2023-05-10T17:46:48.406Z,13.73
2023-05-10T17:47:48.523Z,13.73
2023-05-10T17:48:48.447Z,13.73
2023-05-10T17:49:48.359Z,13.74
2023-05-10T17:50:48.591Z,13.73
2023-05-10T17:51:48.492Z,13.70
2023-05-10T17:52:48.374Z,13.71
2023-05-10T17:53:48.342Z,13.70
2023-05-10T17:54:48.304Z,13.69